Jacks Valley, Nevada
Current Conditions -  °F | °C
As of 2:55 PM on Wednesday 26 Nov 2014 (Local Time) from KCXP Reporting Station
Clear Clear  
Wind Chill: 73°   Ceiling: Unl
Heat Index: 73°   Visibility: 10mi
Dew Point: 21°   Wind: 6mph
Humidity: 14%   Direction: 240°WSW
Pressure: 30.32"   Gusts: NA
Location:  39.1386°N, 119.659°W
Report Text: KCXP 262255Z AUTO 24005KT 10SM CLR 23/M06 A3032 RMK AO2
Loading
Personal Weather Stations






























Interactive Weather Map New forecast layout! Learn more

10-Day Weather Forecast

Advertisements
Track Severe Weather on mobile